KGJT

Grand Junction Regional Airport

Grand Junction, Colorado, USA
METAR KGJT 201553Z 17008KT 10SM CLR 22/07 A3020 RMK AO2 SLP156 T02220067
Observed Flight Rules
Aug-20 @ 15:53 UTC (32 minutes ago) Visual Flight Rules
Wind Visibility Clouds
170° at 8 knots 10 miles
  • Clear skies
Temperatures Readings
Current 22°C / 72°F
Dewpoint 7°C / 45°F
Humidity 38%
Altimeter 30.2" Hg
Pressure 1015.6 hPa
Elevation 1475
METAR KGJT 201553Z 17008KT 10SM CLR 22/07 A3020 RMK AO2 SLP156 T02220067
Observed Flight Rules
Aug-20 @ 15:53 UTC
(32 minutes ago)
VFR
Wind Visibility
170° at 8 knots 10 miles
Clouds
  • Clear skies
Temperature Dewpoint
22°C / 72°F 7°C / 45°F
Humidity Altimeter Pressure
38% 30.2" Hg 1015.6 hPa